Terminal Aerodrome Forecast
Issued by NWS Wilmington, OH

Current Version | Previous Version | Graphics & Text | Print | Product List | Glossary On
Versions: 1 2 3 4 5 6 7 8 9 10 11 12 13 14 15 16 17 18 19 20 21 22 23 24
650
FTUS41 KILN 182337
TAFCVG
TAF
KCVG 182337Z 1900/2006 VRB05KT P6SM VCSH SCT030 OVC050
      TEMPO 1900/1901 29020G30KT 5SM SHRA BKN020 OVC040
     FM190100 27016G28KT P6SM OVC060
      TEMPO 1902/1905 SKC
     FM190500 27014G24KT P6SM OVC025
      TEMPO 1905/1907 OVC035
     FM190900 29012G18KT P6SM OVC015
      TEMPO 1911/1913 -RA
     FM191400 33011KT P6SM BKN017
     FM191900 32012G20KT P6SM SCT025 BKN040
     FM200000 32009KT P6SM SCT250=

USA.gov is the U.S. government's official web portal to all federal, state and local government web resources and services.